createdAt,value
2022-12-23T00:01:06.250Z,11.00
2022-12-23T00:03:35.493Z,11.00
2022-12-23T00:06:09.982Z,6.30
2022-12-23T00:08:39.371Z,7.80
2022-12-23T00:11:21.385Z,10.30
2022-12-23T00:14:08.449Z,10.40
2022-12-23T00:16:37.648Z,13.70
2022-12-23T00:19:06.278Z,11.40
2022-12-23T00:21:36.013Z,11.40
2022-12-23T00:24:04.860Z,11.30
2022-12-23T00:26:33.331Z,10.30
2022-12-23T00:29:01.831Z,12.50
2022-12-23T00:31:30.426Z,14.90
2022-12-23T00:33:58.952Z,10.60
2022-12-23T00:36:30.370Z,10.50
2022-12-23T00:39:18.543Z,14.10
2022-12-23T00:42:05.574Z,14.60
2022-12-23T00:44:34.374Z,12.30
2022-12-23T00:47:02.954Z,12.30
2022-12-23T00:49:43.543Z,12.60
2022-12-23T00:52:15.768Z,12.60
2022-12-23T00:57:13.113Z,12.50
2022-12-23T00:59:41.588Z,14.70
2022-12-23T01:02:30.970Z,9.00
2022-12-23T01:05:18.373Z,15.00
2022-12-23T01:07:46.897Z,11.10
2022-12-23T01:10:15.673Z,13.00
2022-12-23T01:12:44.212Z,11.50
2022-12-23T01:15:12.677Z,10.30
2022-12-23T01:17:41.127Z,9.00
2022-12-23T01:20:10.038Z,13.30
2022-12-23T01:22:38.645Z,18.10
2022-12-23T01:25:07.589Z,12.00
2022-12-23T01:27:36.063Z,12.80
2022-12-23T01:30:07.412Z,16.40
2022-12-23T01:32:35.891Z,14.80
2022-12-23T01:35:04.935Z,15.30
2022-12-23T01:37:36.092Z,14.60
2022-12-23T01:40:05.318Z,14.40
2022-12-23T01:42:47.372Z,14.00
2022-12-23T01:45:29.534Z,15.60
2022-12-23T01:48:27.823Z,13.90
2022-12-23T01:51:02.871Z,13.20
2022-12-23T01:53:46.268Z,14.60
2022-12-23T01:56:24.873Z,13.00
2022-12-23T01:59:00.849Z,12.50
2022-12-23T02:01:48.977Z,12.90
2022-12-23T02:04:24.991Z,14.90
2022-12-23T02:07:12.224Z,11.50
2022-12-23T02:09:41.104Z,15.10
2022-12-23T02:12:46.982Z,15.50
2022-12-23T02:15:57.595Z,17.10
2022-12-23T02:18:50.937Z,12.20
2022-12-23T02:21:49.715Z,13.70
2022-12-23T02:24:41.757Z,11.50
2022-12-23T02:27:19.063Z,14.10
2022-12-23T02:30:05.966Z,15.50
2022-12-23T02:32:50.384Z,14.90
2022-12-23T02:35:39.371Z,12.70
2022-12-23T02:38:28.981Z,14.30
2022-12-23T02:41:11.200Z,15.30
2022-12-23T02:43:49.436Z,13.50
2022-12-23T02:46:24.174Z,13.10
2022-12-23T02:49:08.083Z,11.50
2022-12-23T02:51:44.712Z,15.10
2022-12-23T02:54:19.066Z,13.00
2022-12-23T02:56:51.926Z,8.50
2022-12-23T02:59:28.322Z,10.00
2022-12-23T03:01:57.607Z,13.40
2022-12-23T03:04:26.362Z,13.10
2022-12-23T03:06:57.448Z,12.90
2022-12-23T03:09:46.145Z,11.30
2022-12-23T03:12:20.622Z,11.80
2022-12-23T03:15:06.294Z,10.90
2022-12-23T03:17:37.516Z,14.00
2022-12-23T03:20:21.642Z,11.70
2022-12-23T03:23:20.085Z,14.20
2022-12-23T03:26:09.678Z,15.80
2022-12-23T03:29:07.742Z,15.30
2022-12-23T03:31:37.915Z,15.10
2022-12-23T03:34:11.741Z,17.10
2022-12-23T03:36:49.524Z,13.30
2022-12-23T03:39:22.799Z,13.90
2022-12-23T03:41:58.319Z,18.30
2022-12-23T03:44:38.028Z,19.20
2022-12-23T03:47:14.370Z,19.30
2022-12-23T03:49:53.179Z,16.90
2022-12-23T03:52:27.312Z,17.70
2022-12-23T03:54:59.441Z,15.70
2022-12-23T03:57:39.908Z,15.80
2022-12-23T04:00:09.201Z,16.10
2022-12-23T04:03:02.750Z,15.50
2022-12-23T04:05:37.764Z,16.40
2022-12-23T04:08:39.217Z,18.20
2022-12-23T04:11:08.564Z,23.40
2022-12-23T04:13:37.458Z,16.40
2022-12-23T04:16:06.884Z,17.90
2022-12-23T04:18:35.442Z,16.20
2022-12-23T04:21:04.124Z,18.10
2022-12-23T04:23:32.575Z,20.30
2022-12-23T04:26:01.111Z,21.10
2022-12-23T04:28:29.653Z,20.70
2022-12-23T04:30:58.152Z,22.00
2022-12-23T04:33:26.652Z,18.70
2022-12-23T04:35:55.201Z,20.20
2022-12-23T04:38:23.839Z,16.50
2022-12-23T04:40:52.369Z,20.80
2022-12-23T04:43:24.053Z,21.70
2022-12-23T04:45:52.933Z,14.30
2022-12-23T04:48:21.516Z,18.70
2022-12-23T04:50:50.026Z,17.00
2022-12-23T04:53:18.466Z,17.80
2022-12-23T04:55:51.338Z,16.80
2022-12-23T04:58:22.268Z,17.20
2022-12-23T05:01:04.873Z,17.40
2022-12-23T05:06:02.488Z,24.50
2022-12-23T05:08:31.718Z,20.90
2022-12-23T05:11:00.263Z,16.50
2022-12-23T05:13:28.729Z,19.60
2022-12-23T05:15:57.303Z,19.40
2022-12-23T05:18:25.890Z,18.90
2022-12-23T05:20:54.562Z,22.30
2022-12-23T05:23:23.152Z,21.80
2022-12-23T05:25:54.168Z,23.60
2022-12-23T05:28:23.357Z,22.20
2022-12-23T05:31:03.029Z,22.60
2022-12-23T05:33:32.454Z,33.20
2022-12-23T05:36:01.648Z,17.40
2022-12-23T05:38:30.596Z,20.50
2022-12-23T05:40:59.148Z,18.50
2022-12-23T05:43:27.696Z,17.60
2022-12-23T05:45:56.307Z,21.00
2022-12-23T05:48:25.265Z,19.40
2022-12-23T05:50:54.655Z,21.30
2022-12-23T05:53:24.634Z,19.10
2022-12-23T05:55:53.151Z,25.00
2022-12-23T05:58:21.645Z,20.50
2022-12-23T06:00:50.249Z,18.40
2022-12-23T06:03:18.893Z,18.10
2022-12-23T06:05:52.159Z,20.20
2022-12-23T06:08:21.091Z,18.30
2022-12-23T06:10:49.736Z,17.00
2022-12-23T06:13:18.485Z,17.40
2022-12-23T06:15:47.067Z,20.00
2022-12-23T06:18:16.092Z,18.40
2022-12-23T06:20:48.289Z,18.50
2022-12-23T06:23:16.828Z,13.60
2022-12-23T06:25:45.252Z,16.70
2022-12-23T06:28:13.821Z,15.10
2022-12-23T06:30:42.260Z,14.30
2022-12-23T06:33:10.730Z,16.20
2022-12-23T06:35:39.172Z,18.10
2022-12-23T06:38:11.813Z,17.30
2022-12-23T06:40:40.788Z,16.10
2022-12-23T06:43:11.436Z,14.70
2022-12-23T06:45:40.565Z,17.00
2022-12-23T06:48:09.137Z,17.70
2022-12-23T06:50:37.599Z,18.40
2022-12-23T06:53:06.292Z,15.20
2022-12-23T06:55:35.136Z,18.20
2022-12-23T06:58:03.774Z,15.50
2022-12-23T07:00:32.659Z,16.00
2022-12-23T07:03:01.264Z,16.90
2022-12-23T07:05:36.792Z,15.50
2022-12-23T07:08:06.535Z,19.20
2022-12-23T07:10:35.147Z,17.80
2022-12-23T07:13:03.725Z,20.60
2022-12-23T07:15:32.337Z,18.90
2022-12-23T07:18:00.789Z,20.00
2022-12-23T07:20:29.319Z,15.60
2022-12-23T07:22:58.352Z,18.00
2022-12-23T07:25:26.866Z,15.30
2022-12-23T07:27:55.937Z,16.10
2022-12-23T07:30:25.163Z,16.90
2022-12-23T07:32:54.059Z,15.50
2022-12-23T07:35:22.575Z,19.50
2022-12-23T07:37:55.806Z,17.50
2022-12-23T07:40:24.986Z,16.90
2022-12-23T07:42:59.050Z,15.50
2022-12-23T07:45:29.513Z,17.40
2022-12-23T07:48:00.432Z,14.70
2022-12-23T07:50:29.028Z,14.60
2022-12-23T07:52:57.645Z,18.50
2022-12-23T07:55:26.693Z,18.00
2022-12-23T07:57:55.245Z,20.30
2022-12-23T08:00:23.847Z,16.10
2022-12-23T08:02:52.582Z,15.10
2022-12-23T08:05:21.409Z,17.90
2022-12-23T08:07:51.381Z,17.60
2022-12-23T08:10:20.106Z,17.30
2022-12-23T08:12:48.586Z,20.00
2022-12-23T08:15:17.184Z,17.60
2022-12-23T08:17:45.852Z,16.60
2022-12-23T08:20:14.407Z,17.40
2022-12-23T08:22:42.885Z,17.00
2022-12-23T08:25:11.730Z,16.80
2022-12-23T08:27:40.372Z,21.30
2022-12-23T08:30:09.711Z,15.20
2022-12-23T08:32:38.455Z,16.50
2022-12-23T08:35:07.800Z,20.70
2022-12-23T08:37:36.385Z,16.70
2022-12-23T08:40:05.599Z,18.90
2022-12-23T08:42:34.215Z,16.30
2022-12-23T08:45:02.810Z,15.30
2022-12-23T08:47:32.033Z,16.00
2022-12-23T08:50:00.736Z,18.00
2022-12-23T08:52:29.429Z,16.40
2022-12-23T08:54:57.899Z,20.70
2022-12-23T08:57:26.542Z,18.90
2022-12-23T08:59:54.951Z,17.00
2022-12-23T09:02:23.693Z,19.60
2022-12-23T09:04:52.389Z,15.00
2022-12-23T09:07:20.931Z,17.60
2022-12-23T09:09:49.697Z,19.10
2022-12-23T09:12:18.199Z,15.10
2022-12-23T09:14:47.951Z,16.30
2022-12-23T09:17:17.819Z,18.90
2022-12-23T09:19:52.421Z,20.50
2022-12-23T09:22:21.525Z,19.70
2022-12-23T09:24:50.134Z,18.60
2022-12-23T09:27:18.641Z,17.90
2022-12-23T09:29:47.231Z,16.80
2022-12-23T09:32:16.070Z,20.80
2022-12-23T09:34:44.659Z,18.90
2022-12-23T09:37:14.538Z,16.20
2022-12-23T09:39:43.582Z,19.10
2022-12-23T09:42:46.977Z,16.70
2022-12-23T09:45:24.139Z,16.60
2022-12-23T09:47:56.872Z,16.90
2022-12-23T09:50:30.920Z,18.50
2022-12-23T09:53:07.457Z,16.70
2022-12-23T09:55:58.026Z,14.70
2022-12-23T09:58:37.185Z,18.20
2022-12-23T10:01:32.010Z,18.80
2022-12-23T10:04:28.567Z,19.40
2022-12-23T10:07:06.390Z,17.00
2022-12-23T10:09:39.920Z,18.30
2022-12-23T10:12:23.752Z,17.70
2022-12-23T10:15:00.106Z,16.40
2022-12-23T10:17:38.434Z,15.40
2022-12-23T10:20:14.856Z,17.30
2022-12-23T10:22:45.549Z,19.50
2022-12-23T10:25:45.765Z,19.80
2022-12-23T10:28:14.269Z,22.10
2022-12-23T10:31:10.989Z,19.90
2022-12-23T10:33:46.524Z,22.10
2022-12-23T10:36:22.982Z,19.70
2022-12-23T10:39:03.297Z,18.80
2022-12-23T10:42:05.198Z,17.00
2022-12-23T10:44:55.969Z,19.70
2022-12-23T10:47:36.566Z,21.30
2022-12-23T10:50:26.658Z,21.80
2022-12-23T10:53:00.285Z,22.00
2022-12-23T10:55:34.203Z,20.00
2022-12-23T10:58:18.613Z,18.10
2022-12-23T11:00:55.603Z,18.90
2022-12-23T11:03:40.577Z,17.90
2022-12-23T11:16:27.957Z,17.80
2022-12-23T11:19:03.684Z,17.00
2022-12-23T11:21:33.760Z,16.80
2022-12-23T11:24:18.264Z,20.00
2022-12-23T11:27:02.577Z,21.20
2022-12-23T11:29:52.258Z,15.30
2022-12-23T11:32:28.892Z,17.80
2022-12-23T11:34:57.437Z,18.70
2022-12-23T11:37:52.580Z,22.20
2022-12-23T11:40:46.967Z,20.00
2022-12-23T11:43:17.478Z,20.00
2022-12-23T11:45:46.126Z,25.50
2022-12-23T11:48:30.676Z,21.40
2022-12-23T11:51:01.816Z,20.90
2022-12-23T12:30:13.829Z,21.00
2022-12-23T12:33:14.655Z,20.70
2022-12-23T12:36:05.489Z,23.60
2022-12-23T12:38:38.179Z,26.70
2022-12-23T12:44:38.031Z,25.30
2022-12-23T12:47:44.658Z,27.10
2022-12-23T12:50:16.453Z,23.20
2022-12-23T12:52:45.179Z,24.10
2022-12-23T12:55:16.876Z,29.20
2022-12-23T12:57:45.870Z,29.80
2022-12-23T13:00:23.263Z,26.70
2022-12-23T13:03:20.100Z,26.80
2022-12-23T13:06:19.554Z,25.90
2022-12-23T13:09:06.846Z,23.10
2022-12-23T13:12:01.579Z,27.90
2022-12-23T13:14:51.458Z,27.10
2022-12-23T13:17:39.269Z,27.80
2022-12-23T13:20:20.613Z,27.80
2022-12-23T13:22:55.808Z,30.80
2022-12-23T13:25:41.592Z,22.50
2022-12-23T13:28:45.708Z,23.60
2022-12-23T13:31:41.033Z,26.40
2022-12-23T13:34:29.713Z,25.40
2022-12-23T13:37:20.705Z,21.50
2022-12-23T13:40:19.936Z,21.20
2022-12-23T13:42:58.839Z,21.90
2022-12-23T13:45:35.740Z,21.20
2022-12-23T13:48:35.261Z,21.80
2022-12-23T13:51:13.798Z,24.30
2022-12-23T13:53:56.934Z,21.70
2022-12-23T13:57:01.579Z,20.30
2022-12-23T13:59:59.740Z,18.40
2022-12-23T14:02:42.753Z,21.50
2022-12-23T14:05:30.674Z,25.60
2022-12-23T14:08:19.216Z,21.50
2022-12-23T14:10:55.358Z,20.60
2022-12-23T14:13:38.850Z,22.50
2022-12-23T14:16:26.427Z,21.50
2022-12-23T14:19:19.834Z,21.20
2022-12-23T14:21:59.826Z,21.00
2022-12-23T14:24:50.069Z,26.30
2022-12-23T14:27:36.900Z,22.40
2022-12-23T14:30:11.283Z,22.80
2022-12-23T14:32:50.136Z,21.70
2022-12-23T14:35:40.298Z,23.00
2022-12-23T14:38:30.199Z,21.40
2022-12-23T14:41:23.388Z,18.50
2022-12-23T14:43:56.228Z,20.90
2022-12-23T14:46:34.072Z,22.90
2022-12-23T14:49:36.779Z,27.80
2022-12-23T14:51:51.187Z,20.90
2022-12-23T14:54:38.416Z,19.00
2022-12-23T14:57:17.560Z,16.80
2022-12-23T15:00:01.528Z,18.20
2022-12-23T15:02:37.101Z,21.40
2022-12-23T15:05:06.047Z,20.30
2022-12-23T15:07:41.409Z,22.00
2022-12-23T15:10:30.545Z,20.10
2022-12-23T15:13:06.233Z,17.80
2022-12-23T15:15:34.839Z,22.30
2022-12-23T15:18:06.873Z,19.70
2022-12-23T15:20:35.488Z,27.40
2022-12-23T15:23:14.487Z,20.20
2022-12-23T15:25:46.594Z,19.10
2022-12-23T15:28:21.847Z,17.00
2022-12-23T15:30:54.646Z,16.20
2022-12-23T15:36:25.105Z,12.20
2022-12-23T15:38:53.876Z,11.40
2022-12-23T15:41:23.182Z,15.20
2022-12-23T15:43:51.663Z,11.70
2022-12-23T15:46:28.984Z,8.50
2022-12-23T15:48:58.636Z,13.10
2022-12-23T15:52:05.820Z,11.10
2022-12-23T15:54:45.306Z,15.60
2022-12-23T15:57:19.437Z,16.00
2022-12-23T15:59:48.714Z,15.60
2022-12-23T16:05:26.713Z,14.50
2022-12-23T16:08:12.167Z,13.80
2022-12-23T16:10:41.233Z,15.60
2022-12-23T16:13:20.570Z,12.40
2022-12-23T16:15:49.219Z,12.90
2022-12-23T16:18:23.959Z,11.10
2022-12-23T16:20:57.686Z,15.00
2022-12-23T16:23:30.306Z,11.00
2022-12-23T16:26:00.457Z,10.50
2022-12-23T16:29:01.462Z,7.10
2022-12-23T16:31:30.639Z,8.40
2022-12-23T16:34:01.080Z,8.60
2022-12-23T16:36:29.573Z,8.00
2022-12-23T16:39:07.177Z,7.80
2022-12-23T16:41:36.233Z,11.30
2022-12-23T16:44:05.758Z,12.20
2022-12-23T16:46:40.053Z,8.50
2022-12-23T16:49:15.032Z,9.80
2022-12-23T16:51:43.861Z,10.20
2022-12-23T16:54:18.167Z,8.70
2022-12-23T16:56:47.054Z,8.40
2022-12-23T16:59:16.172Z,8.60
2022-12-23T17:01:49.311Z,8.30
2022-12-23T17:04:18.036Z,5.90
2022-12-23T17:06:46.768Z,6.60
2022-12-23T17:09:15.517Z,4.90
2022-12-23T17:11:47.070Z,5.00
2022-12-23T17:14:24.610Z,5.30
2022-12-23T17:16:53.235Z,7.00
2022-12-23T17:19:27.696Z,6.70
2022-12-23T17:22:02.919Z,6.50
2022-12-23T17:24:31.545Z,7.40
2022-12-23T17:27:00.204Z,7.30
2022-12-23T17:29:28.850Z,5.50
2022-12-23T17:31:57.499Z,8.20
2022-12-23T17:34:26.411Z,7.60
2022-12-23T17:36:54.947Z,4.60
2022-12-23T17:39:23.559Z,6.00
2022-12-23T17:41:52.178Z,6.60
2022-12-23T17:44:20.795Z,6.60
2022-12-23T17:46:49.275Z,5.40
2022-12-23T17:49:17.865Z,4.20
2022-12-23T17:51:46.611Z,10.30
2022-12-23T17:54:25.218Z,5.80
2022-12-23T17:56:53.762Z,8.50
2022-12-23T17:59:22.348Z,7.40
2022-12-23T18:01:51.131Z,7.40
2022-12-23T18:04:19.834Z,6.30
2022-12-23T18:06:48.514Z,6.30
2022-12-23T18:09:18.893Z,6.30
2022-12-23T18:11:48.059Z,8.90
2022-12-23T18:14:21.008Z,11.10
2022-12-23T18:16:49.828Z,14.90
2022-12-23T18:19:20.594Z,17.10
2022-12-23T18:21:50.625Z,16.70
2022-12-23T18:24:19.247Z,10.60
2022-12-23T18:26:47.861Z,8.70
2022-12-23T18:29:16.466Z,9.00
2022-12-23T18:31:52.100Z,10.20
2022-12-23T18:34:21.168Z,9.20
2022-12-23T18:36:51.970Z,12.10
2022-12-23T18:39:21.268Z,8.60
2022-12-23T18:41:49.939Z,11.90
2022-12-23T18:44:22.752Z,12.00
2022-12-23T18:46:51.421Z,12.60
2022-12-23T18:49:20.056Z,14.90
2022-12-23T18:51:48.949Z,13.10
2022-12-23T18:54:18.213Z,12.90
2022-12-23T18:56:47.695Z,12.10
2022-12-23T18:59:22.769Z,12.80
2022-12-23T19:01:56.528Z,12.60
2022-12-23T19:04:28.491Z,11.60
2022-12-23T19:06:57.524Z,15.40
2022-12-23T19:09:26.406Z,15.70
2022-12-23T19:11:55.036Z,14.00
2022-12-23T19:14:23.706Z,15.40
2022-12-23T19:16:53.103Z,13.40
2022-12-23T19:19:22.345Z,13.40
2022-12-23T19:21:50.966Z,13.00
2022-12-23T19:24:19.448Z,14.10
2022-12-23T19:26:48.240Z,13.90
2022-12-23T19:29:17.059Z,15.20
2022-12-23T19:31:45.469Z,14.30
2022-12-23T19:34:15.630Z,10.90
2022-12-23T19:36:44.758Z,8.80
2022-12-23T19:39:16.502Z,10.30
2022-12-23T19:41:45.717Z,8.00
2022-12-23T19:44:14.563Z,9.60
2022-12-23T19:46:43.445Z,8.10
2022-12-23T19:49:19.177Z,7.20
2022-12-23T19:51:49.531Z,7.70
2022-12-23T19:54:19.075Z,10.70
2022-12-23T19:56:51.168Z,9.00
2022-12-23T19:59:20.679Z,8.90
2022-12-23T20:01:49.747Z,10.80
2022-12-23T20:04:18.314Z,7.10
2022-12-23T20:06:46.813Z,7.60
2022-12-23T20:09:15.388Z,5.80
2022-12-23T20:11:49.175Z,8.60
2022-12-23T20:14:19.066Z,8.50
2022-12-23T20:16:48.663Z,9.60
2022-12-23T20:19:18.340Z,11.90
2022-12-23T20:21:47.177Z,10.60
2022-12-23T20:24:16.492Z,9.50
2022-12-23T20:26:45.506Z,9.60
2022-12-23T20:29:14.444Z,11.20
2022-12-23T20:31:43.678Z,11.50
2022-12-23T20:34:17.330Z,11.00
2022-12-23T20:36:46.030Z,13.60
2022-12-23T20:39:14.514Z,13.40
2022-12-23T20:41:43.014Z,14.80
2022-12-23T20:46:59.985Z,18.10
2022-12-23T20:49:28.637Z,14.40
2022-12-23T20:51:57.204Z,22.50
2022-12-23T20:54:32.279Z,13.90
2022-12-23T20:57:02.736Z,17.40
2022-12-23T20:59:31.224Z,18.60
2022-12-23T21:02:00.682Z,20.30
2022-12-23T21:04:29.345Z,19.10
2022-12-23T21:06:57.875Z,18.30
2022-12-23T21:09:26.359Z,18.60
2022-12-23T21:11:54.858Z,16.00
2022-12-23T21:14:23.413Z,16.30
2022-12-23T21:16:51.897Z,17.20
2022-12-23T21:19:23.014Z,19.60
2022-12-23T21:21:53.005Z,23.10
2022-12-23T21:24:21.521Z,23.00
2022-12-23T21:26:56.055Z,23.60
2022-12-23T21:29:25.981Z,22.70
2022-12-23T21:31:55.427Z,19.40
2022-12-23T21:34:24.236Z,23.30
2022-12-23T21:36:52.893Z,18.20
2022-12-23T21:39:21.521Z,18.40
2022-12-23T21:41:51.542Z,18.80
2022-12-23T21:44:20.355Z,15.40
2022-12-23T21:46:50.937Z,12.10
2022-12-23T21:49:20.709Z,16.20
2022-12-23T21:51:50.470Z,15.00
2022-12-23T21:54:18.968Z,15.80
2022-12-23T21:56:47.419Z,15.40
2022-12-23T21:59:16.143Z,15.80
2022-12-23T22:01:45.106Z,15.30
2022-12-23T22:04:13.934Z,14.10
2022-12-23T22:06:44.719Z,14.90
2022-12-23T22:09:17.211Z,16.90
2022-12-23T22:11:47.168Z,18.90
2022-12-23T22:14:19.670Z,14.60
2022-12-23T22:16:48.478Z,18.20
2022-12-23T22:19:17.107Z,15.00
2022-12-23T22:21:45.533Z,14.80
2022-12-23T22:24:14.066Z,20.00
2022-12-23T22:26:42.661Z,17.00
2022-12-23T22:29:11.640Z,23.90
2022-12-23T22:31:46.416Z,24.60
2022-12-23T22:34:18.170Z,23.90
2022-12-23T22:36:47.123Z,20.40
2022-12-23T22:39:21.677Z,25.00
2022-12-23T22:41:51.589Z,20.30
2022-12-23T22:44:21.011Z,20.80
2022-12-23T22:46:49.571Z,15.50
2022-12-23T22:49:18.629Z,18.00
2022-12-23T22:51:47.147Z,17.20
2022-12-23T22:54:15.809Z,16.10
2022-12-23T22:56:46.070Z,18.00
2022-12-23T22:59:23.295Z,11.40
2022-12-23T23:01:53.073Z,14.20
2022-12-23T23:04:21.662Z,16.30
2022-12-23T23:06:50.301Z,15.80
2022-12-23T23:09:21.008Z,17.00
2022-12-23T23:11:50.702Z,12.00
2022-12-23T23:14:20.554Z,13.70
2022-12-23T23:16:49.148Z,16.40
2022-12-23T23:19:20.668Z,15.10
2022-12-23T23:21:49.428Z,22.30
2022-12-23T23:24:17.946Z,16.80
2022-12-23T23:26:46.415Z,14.80
2022-12-23T23:29:15.196Z,15.70
2022-12-23T23:31:44.688Z,15.00
2022-12-23T23:34:14.226Z,15.60
2022-12-23T23:36:42.942Z,16.30
2022-12-23T23:39:12.846Z,17.60
2022-12-23T23:41:42.070Z,18.70
2022-12-23T23:44:11.687Z,17.10
2022-12-23T23:46:40.368Z,20.00
2022-12-23T23:49:08.913Z,25.00
2022-12-23T23:51:38.571Z,23.80
2022-12-23T23:54:07.808Z,24.00
2022-12-23T23:56:39.036Z,20.20
2022-12-23T23:59:09.107Z,19.70
